sensor_id;sensor_type;location;lat;lon;timestamp;P1;durP1;ratioP1;P2;durP2;ratioP2
20294;SDS011;10306;52.128;5.208;2023-08-06T00:01:04;9.37;;;8.40;;
20294;SDS011;10306;52.128;5.208;2023-08-06T00:03:30;8.83;;;8.03;;
20294;SDS011;10306;52.128;5.208;2023-08-06T00:05:56;9.53;;;8.73;;
20294;SDS011;10306;52.128;5.208;2023-08-06T00:08:22;8.80;;;8.10;;
20294;SDS011;10306;52.128;5.208;2023-08-06T00:10:48;9.70;;;8.60;;
20294;SDS011;10306;52.128;5.208;2023-08-06T00:13:14;10.93;;;9.07;;
20294;SDS011;10306;52.128;5.208;2023-08-06T00:15:40;9.90;;;8.93;;
20294;SDS011;10306;52.128;5.208;2023-08-06T00:18:06;9.03;;;8.30;;
20294;SDS011;10306;52.128;5.208;2023-08-06T00:20:32;8.70;;;7.97;;
20294;SDS011;10306;52.128;5.208;2023-08-06T00:22:58;9.57;;;8.57;;
20294;SDS011;10306;52.128;5.208;2023-08-06T00:25:24;9.83;;;8.50;;
20294;SDS011;10306;52.128;5.208;2023-08-06T00:27:50;8.70;;;7.83;;
20294;SDS011;10306;52.128;5.208;2023-08-06T00:30:16;13.43;;;9.03;;
20294;SDS011;10306;52.128;5.208;2023-08-06T00:32:42;9.13;;;8.23;;
20294;SDS011;10306;52.128;5.208;2023-08-06T00:35:08;8.23;;;7.53;;
20294;SDS011;10306;52.128;5.208;2023-08-06T00:37:34;9.37;;;8.40;;
20294;SDS011;10306;52.128;5.208;2023-08-06T00:40:00;9.37;;;8.53;;
20294;SDS011;10306;52.128;5.208;2023-08-06T00:42:26;8.90;;;8.20;;
20294;SDS011;10306;52.128;5.208;2023-08-06T00:44:52;9.17;;;8.27;;
20294;SDS011;10306;52.128;5.208;2023-08-06T00:47:18;8.90;;;8.07;;
20294;SDS011;10306;52.128;5.208;2023-08-06T00:49:45;11.47;;;9.50;;
20294;SDS011;10306;52.128;5.208;2023-08-06T00:52:11;9.97;;;8.90;;
20294;SDS011;10306;52.128;5.208;2023-08-06T00:54:38;9.10;;;8.30;;
20294;SDS011;10306;52.128;5.208;2023-08-06T00:57:05;8.70;;;7.90;;
20294;SDS011;10306;52.128;5.208;2023-08-06T00:59:33;9.13;;;8.13;;
20294;SDS011;10306;52.128;5.208;2023-08-06T01:02:00;9.73;;;8.80;;
20294;SDS011;10306;52.128;5.208;2023-08-06T01:04:26;9.57;;;8.67;;
20294;SDS011;10306;52.128;5.208;2023-08-06T01:06:55;9.50;;;8.67;;
20294;SDS011;10306;52.128;5.208;2023-08-06T01:11:59;11.00;;;8.40;;
20294;SDS011;10306;52.128;5.208;2023-08-06T01:14:28;9.57;;;8.77;;
20294;SDS011;10306;52.128;5.208;2023-08-06T01:16:56;9.33;;;8.43;;
20294;SDS011;10306;52.128;5.208;2023-08-06T01:19:24;8.47;;;7.67;;
20294;SDS011;10306;52.128;5.208;2023-08-06T01:21:50;12.07;;;8.23;;
20294;SDS011;10306;52.128;5.208;2023-08-06T01:24:16;9.20;;;8.40;;
20294;SDS011;10306;52.128;5.208;2023-08-06T01:26:42;12.87;;;8.73;;
20294;SDS011;10306;52.128;5.208;2023-08-06T01:29:43;11.57;;;8.57;;
20294;SDS011;10306;52.128;5.208;2023-08-06T01:32:02;9.20;;;8.40;;
20294;SDS011;10306;52.128;5.208;2023-08-06T01:34:30;8.90;;;8.10;;
20294;SDS011;10306;52.128;5.208;2023-08-06T01:36:57;9.93;;;8.90;;
20294;SDS011;10306;52.128;5.208;2023-08-06T01:39:23;8.70;;;7.90;;
20294;SDS011;10306;52.128;5.208;2023-08-06T01:41:49;9.43;;;8.43;;
20294;SDS011;10306;52.128;5.208;2023-08-06T01:44:15;8.80;;;8.00;;
20294;SDS011;10306;52.128;5.208;2023-08-06T01:46:41;8.67;;;7.83;;
20294;SDS011;10306;52.128;5.208;2023-08-06T01:49:07;9.70;;;8.90;;
20294;SDS011;10306;52.128;5.208;2023-08-06T01:51:33;9.33;;;7.90;;
20294;SDS011;10306;52.128;5.208;2023-08-06T01:53:59;8.77;;;7.97;;
20294;SDS011;10306;52.128;5.208;2023-08-06T01:56:25;9.07;;;8.30;;
20294;SDS011;10306;52.128;5.208;2023-08-06T01:58:51;10.33;;;8.30;;
20294;SDS011;10306;52.128;5.208;2023-08-06T02:01:17;9.77;;;8.30;;
20294;SDS011;10306;52.128;5.208;2023-08-06T02:03:43;9.37;;;8.57;;
20294;SDS011;10306;52.128;5.208;2023-08-06T02:06:09;9.03;;;8.20;;
20294;SDS011;10306;52.128;5.208;2023-08-06T02:08:35;9.13;;;8.30;;
20294;SDS011;10306;52.128;5.208;2023-08-06T02:11:01;8.93;;;8.03;;
20294;SDS011;10306;52.128;5.208;2023-08-06T02:13:27;8.80;;;8.00;;
20294;SDS011;10306;52.128;5.208;2023-08-06T02:15:53;8.53;;;7.77;;
20294;SDS011;10306;52.128;5.208;2023-08-06T02:18:19;9.53;;;8.73;;
20294;SDS011;10306;52.128;5.208;2023-08-06T02:20:58;9.23;;;8.43;;
20294;SDS011;10306;52.128;5.208;2023-08-06T02:23:24;11.97;;;8.37;;
20294;SDS011;10306;52.128;5.208;2023-08-06T02:26:11;9.70;;;8.80;;
20294;SDS011;10306;52.128;5.208;2023-08-06T02:28:36;9.93;;;8.93;;
20294;SDS011;10306;52.128;5.208;2023-08-06T02:31:02;10.80;;;8.60;;
20294;SDS011;10306;52.128;5.208;2023-08-06T02:33:28;10.10;;;9.17;;
20294;SDS011;10306;52.128;5.208;2023-08-06T02:36:00;10.13;;;9.20;;
20294;SDS011;10306;52.128;5.208;2023-08-06T02:38:28;10.37;;;9.23;;
20294;SDS011;10306;52.128;5.208;2023-08-06T02:40:54;11.13;;;9.83;;
20294;SDS011;10306;52.128;5.208;2023-08-06T02:43:20;11.73;;;10.23;;
20294;SDS011;10306;52.128;5.208;2023-08-06T02:45:46;11.53;;;9.73;;
20294;SDS011;10306;52.128;5.208;2023-08-06T02:48:12;12.37;;;10.03;;
20294;SDS011;10306;52.128;5.208;2023-08-06T02:50:38;10.70;;;9.70;;
20294;SDS011;10306;52.128;5.208;2023-08-06T02:53:05;11.17;;;9.97;;
20294;SDS011;10306;52.128;5.208;2023-08-06T02:55:31;12.17;;;10.87;;
20294;SDS011;10306;52.128;5.208;2023-08-06T02:57:58;11.83;;;10.63;;
20294;SDS011;10306;52.128;5.208;2023-08-06T03:00:24;14.37;;;10.00;;
20294;SDS011;10306;52.128;5.208;2023-08-06T03:02:50;11.93;;;10.63;;
20294;SDS011;10306;52.128;5.208;2023-08-06T03:05:16;11.47;;;10.30;;
20294;SDS011;10306;52.128;5.208;2023-08-06T03:07:42;12.70;;;10.27;;
20294;SDS011;10306;52.128;5.208;2023-08-06T03:10:08;11.53;;;10.50;;
20294;SDS011;10306;52.128;5.208;2023-08-06T03:12:34;11.93;;;10.73;;
20294;SDS011;10306;52.128;5.208;2023-08-06T03:15:00;11.70;;;10.47;;
20294;SDS011;10306;52.128;5.208;2023-08-06T03:17:26;12.90;;;11.60;;
20294;SDS011;10306;52.128;5.208;2023-08-06T03:19:52;12.07;;;10.80;;
20294;SDS011;10306;52.128;5.208;2023-08-06T03:22:18;12.67;;;11.37;;
20294;SDS011;10306;52.128;5.208;2023-08-06T03:24:44;13.90;;;11.93;;
20294;SDS011;10306;52.128;5.208;2023-08-06T03:27:10;13.10;;;10.60;;
20294;SDS011;10306;52.128;5.208;2023-08-06T03:29:36;12.63;;;11.40;;
20294;SDS011;10306;52.128;5.208;2023-08-06T03:32:02;12.63;;;11.30;;
20294;SDS011;10306;52.128;5.208;2023-08-06T03:34:28;15.07;;;12.17;;
20294;SDS011;10306;52.128;5.208;2023-08-06T03:36:54;13.10;;;11.77;;
20294;SDS011;10306;52.128;5.208;2023-08-06T03:39:20;13.43;;;12.03;;
20294;SDS011;10306;52.128;5.208;2023-08-06T03:41:46;13.27;;;12.03;;
20294;SDS011;10306;52.128;5.208;2023-08-06T03:44:12;13.70;;;12.27;;
20294;SDS011;10306;52.128;5.208;2023-08-06T03:46:38;13.43;;;12.03;;
20294;SDS011;10306;52.128;5.208;2023-08-06T03:49:04;14.57;;;13.00;;
20294;SDS011;10306;52.128;5.208;2023-08-06T03:51:30;13.47;;;12.07;;
20294;SDS011;10306;52.128;5.208;2023-08-06T03:53:56;13.47;;;11.97;;
20294;SDS011;10306;52.128;5.208;2023-08-06T03:56:22;14.47;;;12.10;;
20294;SDS011;10306;52.128;5.208;2023-08-06T03:58:48;13.50;;;12.17;;
20294;SDS011;10306;52.128;5.208;2023-08-06T04:01:14;13.80;;;12.27;;
20294;SDS011;10306;52.128;5.208;2023-08-06T04:03:40;13.83;;;12.37;;
20294;SDS011;10306;52.128;5.208;2023-08-06T04:06:06;13.77;;;12.17;;
20294;SDS011;10306;52.128;5.208;2023-08-06T04:08:32;15.23;;;13.20;;
20294;SDS011;10306;52.128;5.208;2023-08-06T04:10:58;14.23;;;12.57;;
20294;SDS011;10306;52.128;5.208;2023-08-06T04:13:24;17.60;;;12.10;;
20294;SDS011;10306;52.128;5.208;2023-08-06T04:15:50;13.47;;;11.60;;
20294;SDS011;10306;52.128;5.208;2023-08-06T04:18:16;15.40;;;13.47;;
20294;SDS011;10306;52.128;5.208;2023-08-06T04:20:43;16.03;;;13.13;;
20294;SDS011;10306;52.128;5.208;2023-08-06T04:23:09;17.23;;;13.13;;
20294;SDS011;10306;52.128;5.208;2023-08-06T04:25:35;18.77;;;13.47;;
20294;SDS011;10306;52.128;5.208;2023-08-06T04:28:01;15.93;;;13.50;;
20294;SDS011;10306;52.128;5.208;2023-08-06T04:30:27;17.97;;;14.60;;
20294;SDS011;10306;52.128;5.208;2023-08-06T04:32:53;19.03;;;13.97;;
20294;SDS011;10306;52.128;5.208;2023-08-06T04:35:19;15.87;;;13.43;;
20294;SDS011;10306;52.128;5.208;2023-08-06T04:37:45;17.90;;;14.00;;
20294;SDS011;10306;52.128;5.208;2023-08-06T04:40:11;16.93;;;13.80;;
20294;SDS011;10306;52.128;5.208;2023-08-06T04:42:38;14.73;;;13.13;;
20294;SDS011;10306;52.128;5.208;2023-08-06T04:45:04;16.80;;;14.00;;
20294;SDS011;10306;52.128;5.208;2023-08-06T04:47:30;17.83;;;14.17;;
20294;SDS011;10306;52.128;5.208;2023-08-06T04:49:56;19.70;;;14.80;;
20294;SDS011;10306;52.128;5.208;2023-08-06T04:52:22;16.93;;;13.87;;
20294;SDS011;10306;52.128;5.208;2023-08-06T04:54:48;15.27;;;13.23;;
20294;SDS011;10306;52.128;5.208;2023-08-06T04:57:14;14.23;;;12.73;;
20294;SDS011;10306;52.128;5.208;2023-08-06T04:59:40;14.00;;;12.17;;
20294;SDS011;10306;52.128;5.208;2023-08-06T05:02:06;16.90;;;12.70;;
20294;SDS011;10306;52.128;5.208;2023-08-06T05:04:32;14.93;;;12.37;;
20294;SDS011;10306;52.128;5.208;2023-08-06T05:06:58;13.97;;;12.10;;
20294;SDS011;10306;52.128;5.208;2023-08-06T05:09:24;16.13;;;13.17;;
20294;SDS011;10306;52.128;5.208;2023-08-06T05:11:50;14.00;;;11.87;;
20294;SDS011;10306;52.128;5.208;2023-08-06T05:14:16;18.40;;;12.83;;
20294;SDS011;10306;52.128;5.208;2023-08-06T05:16:42;16.60;;;12.87;;
20294;SDS011;10306;52.128;5.208;2023-08-06T05:19:08;14.07;;;12.53;;
20294;SDS011;10306;52.128;5.208;2023-08-06T05:21:34;16.27;;;12.67;;
20294;SDS011;10306;52.128;5.208;2023-08-06T05:24:00;15.37;;;12.37;;
20294;SDS011;10306;52.128;5.208;2023-08-06T05:26:26;16.07;;;12.37;;
20294;SDS011;10306;52.128;5.208;2023-08-06T05:28:52;17.67;;;13.30;;
20294;SDS011;10306;52.128;5.208;2023-08-06T05:31:18;18.20;;;13.67;;
20294;SDS011;10306;52.128;5.208;2023-08-06T05:33:44;19.47;;;13.30;;
20294;SDS011;10306;52.128;5.208;2023-08-06T05:36:10;17.73;;;13.30;;
20294;SDS011;10306;52.128;5.208;2023-08-06T05:38:36;20.33;;;14.00;;
20294;SDS011;10306;52.128;5.208;2023-08-06T05:41:02;17.63;;;14.00;;
20294;SDS011;10306;52.128;5.208;2023-08-06T05:43:28;19.53;;;14.77;;
20294;SDS011;10306;52.128;5.208;2023-08-06T05:45:55;21.40;;;14.63;;
20294;SDS011;10306;52.128;5.208;2023-08-06T05:48:21;19.97;;;16.13;;
20294;SDS011;10306;52.128;5.208;2023-08-06T05:50:49;17.50;;;15.13;;
20294;SDS011;10306;52.128;5.208;2023-08-06T05:53:15;20.40;;;14.93;;
20294;SDS011;10306;52.128;5.208;2023-08-06T05:55:41;20.23;;;15.50;;
20294;SDS011;10306;52.128;5.208;2023-08-06T05:58:07;20.23;;;14.77;;
20294;SDS011;10306;52.128;5.208;2023-08-06T06:00:33;19.40;;;15.20;;
20294;SDS011;10306;52.128;5.208;2023-08-06T06:03:00;18.70;;;14.07;;
20294;SDS011;10306;52.128;5.208;2023-08-06T06:05:26;15.53;;;13.50;;
20294;SDS011;10306;52.128;5.208;2023-08-06T06:07:52;13.77;;;12.00;;
20294;SDS011;10306;52.128;5.208;2023-08-06T06:10:18;15.23;;;11.63;;
20294;SDS011;10306;52.128;5.208;2023-08-06T06:12:44;10.50;;;9.40;;
20294;SDS011;10306;52.128;5.208;2023-08-06T06:15:10;7.77;;;7.10;;
20294;SDS011;10306;52.128;5.208;2023-08-06T06:17:36;6.20;;;5.70;;
20294;SDS011;10306;52.128;5.208;2023-08-06T06:20:02;4.23;;;4.00;;
20294;SDS011;10306;52.128;5.208;2023-08-06T06:22:31;3.97;;;3.77;;
20294;SDS011;10306;52.128;5.208;2023-08-06T06:24:57;3.70;;;3.50;;
20294;SDS011;10306;52.128;5.208;2023-08-06T06:27:23;4.10;;;3.90;;
20294;SDS011;10306;52.128;5.208;2023-08-06T06:29:49;3.47;;;3.37;;
20294;SDS011;10306;52.128;5.208;2023-08-06T06:32:17;4.47;;;4.17;;
20294;SDS011;10306;52.128;5.208;2023-08-06T06:34:43;4.23;;;4.03;;
20294;SDS011;10306;52.128;5.208;2023-08-06T06:37:09;4.10;;;3.90;;
20294;SDS011;10306;52.128;5.208;2023-08-06T06:39:35;4.50;;;4.30;;
20294;SDS011;10306;52.128;5.208;2023-08-06T06:42:01;5.00;;;4.70;;
20294;SDS011;10306;52.128;5.208;2023-08-06T06:44:27;4.87;;;4.67;;
20294;SDS011;10306;52.128;5.208;2023-08-06T06:46:53;5.03;;;4.57;;
20294;SDS011;10306;52.128;5.208;2023-08-06T06:49:19;4.57;;;4.27;;
20294;SDS011;10306;52.128;5.208;2023-08-06T06:51:45;4.50;;;4.30;;
20294;SDS011;10306;52.128;5.208;2023-08-06T06:54:11;4.57;;;4.37;;
20294;SDS011;10306;52.128;5.208;2023-08-06T06:56:37;4.20;;;4.00;;
20294;SDS011;10306;52.128;5.208;2023-08-06T06:59:03;5.50;;;5.20;;
20294;SDS011;10306;52.128;5.208;2023-08-06T07:01:29;4.40;;;4.10;;
20294;SDS011;10306;52.128;5.208;2023-08-06T07:03:55;4.33;;;4.13;;
20294;SDS011;10306;52.128;5.208;2023-08-06T07:06:22;4.60;;;4.23;;
20294;SDS011;10306;52.128;5.208;2023-08-06T07:08:48;4.40;;;4.20;;
20294;SDS011;10306;52.128;5.208;2023-08-06T07:11:14;4.47;;;4.27;;
20294;SDS011;10306;52.128;5.208;2023-08-06T07:13:40;4.63;;;4.23;;
20294;SDS011;10306;52.128;5.208;2023-08-06T07:16:05;4.53;;;4.33;;
20294;SDS011;10306;52.128;5.208;2023-08-06T07:18:31;5.30;;;4.93;;
20294;SDS011;10306;52.128;5.208;2023-08-06T07:20:57;5.17;;;4.83;;
20294;SDS011;10306;52.128;5.208;2023-08-06T07:23:24;6.00;;;5.60;;
20294;SDS011;10306;52.128;5.208;2023-08-06T07:25:51;7.20;;;6.70;;
20294;SDS011;10306;52.128;5.208;2023-08-06T07:28:17;6.47;;;5.97;;
20294;SDS011;10306;52.128;5.208;2023-08-06T07:30:43;6.83;;;6.13;;
20294;SDS011;10306;52.128;5.208;2023-08-06T07:33:10;6.80;;;6.30;;
20294;SDS011;10306;52.128;5.208;2023-08-06T07:35:36;6.87;;;6.27;;
20294;SDS011;10306;52.128;5.208;2023-08-06T07:38:02;6.07;;;5.73;;
20294;SDS011;10306;52.128;5.208;2023-08-06T07:40:28;6.57;;;6.27;;
20294;SDS011;10306;52.128;5.208;2023-08-06T07:42:54;6.27;;;5.77;;
20294;SDS011;10306;52.128;5.208;2023-08-06T07:45:20;6.40;;;6.00;;
20294;SDS011;10306;52.128;5.208;2023-08-06T07:47:47;6.57;;;6.03;;
20294;SDS011;10306;52.128;5.208;2023-08-06T07:50:13;5.83;;;5.43;;
20294;SDS011;10306;52.128;5.208;2023-08-06T07:52:39;5.80;;;5.40;;
20294;SDS011;10306;52.128;5.208;2023-08-06T07:55:05;5.83;;;5.30;;
20294;SDS011;10306;52.128;5.208;2023-08-06T07:57:31;5.27;;;4.87;;
20294;SDS011;10306;52.128;5.208;2023-08-06T07:59:58;5.33;;;5.00;;
20294;SDS011;10306;52.128;5.208;2023-08-06T08:02:24;5.50;;;5.20;;
20294;SDS011;10306;52.128;5.208;2023-08-06T08:04:50;5.17;;;4.80;;
20294;SDS011;10306;52.128;5.208;2023-08-06T08:07:16;5.13;;;4.73;;
20294;SDS011;10306;52.128;5.208;2023-08-06T08:09:42;4.70;;;4.40;;
20294;SDS011;10306;52.128;5.208;2023-08-06T08:12:08;4.50;;;4.30;;
20294;SDS011;10306;52.128;5.208;2023-08-06T08:14:34;4.10;;;3.90;;
20294;SDS011;10306;52.128;5.208;2023-08-06T08:17:02;4.93;;;4.43;;
20294;SDS011;10306;52.128;5.208;2023-08-06T08:19:28;4.47;;;4.17;;
20294;SDS011;10306;52.128;5.208;2023-08-06T08:21:54;5.67;;;5.00;;
20294;SDS011;10306;52.128;5.208;2023-08-06T08:24:20;5.37;;;4.97;;
20294;SDS011;10306;52.128;5.208;2023-08-06T08:26:49;5.00;;;4.60;;
20294;SDS011;10306;52.128;5.208;2023-08-06T08:29:14;5.80;;;5.40;;
20294;SDS011;10306;52.128;5.208;2023-08-06T08:31:40;4.97;;;4.67;;
20294;SDS011;10306;52.128;5.208;2023-08-06T08:34:06;6.40;;;5.90;;
20294;SDS011;10306;52.128;5.208;2023-08-06T08:36:32;6.40;;;5.90;;
20294;SDS011;10306;52.128;5.208;2023-08-06T08:38:58;6.57;;;6.03;;
20294;SDS011;10306;52.128;5.208;2023-08-06T08:41:24;6.60;;;6.10;;
20294;SDS011;10306;52.128;5.208;2023-08-06T08:43:51;6.47;;;5.97;;
20294;SDS011;10306;52.128;5.208;2023-08-06T08:46:17;6.90;;;6.30;;
20294;SDS011;10306;52.128;5.208;2023-08-06T08:48:44;7.17;;;6.60;;
20294;SDS011;10306;52.128;5.208;2023-08-06T08:51:10;7.60;;;6.93;;
20294;SDS011;10306;52.128;5.208;2023-08-06T08:53:37;8.97;;;6.93;;
20294;SDS011;10306;52.128;5.208;2023-08-06T08:56:04;7.40;;;6.70;;
20294;SDS011;10306;52.128;5.208;2023-08-06T08:58:30;7.90;;;7.13;;
20294;SDS011;10306;52.128;5.208;2023-08-06T09:00:56;8.23;;;7.30;;
20294;SDS011;10306;52.128;5.208;2023-08-06T09:03:23;7.70;;;7.00;;
20294;SDS011;10306;52.128;5.208;2023-08-06T09:05:51;6.97;;;6.47;;
20294;SDS011;10306;52.128;5.208;2023-08-06T09:08:18;8.33;;;7.63;;
20294;SDS011;10306;52.128;5.208;2023-08-06T09:10:44;7.07;;;6.23;;
20294;SDS011;10306;52.128;5.208;2023-08-06T09:13:11;9.33;;;7.33;;
20294;SDS011;10306;52.128;5.208;2023-08-06T09:15:38;7.87;;;7.23;;
20294;SDS011;10306;52.128;5.208;2023-08-06T09:18:11;7.20;;;6.63;;
20294;SDS011;10306;52.128;5.208;2023-08-06T09:20:37;7.80;;;7.10;;
20294;SDS011;10306;52.128;5.208;2023-08-06T09:23:06;7.30;;;6.67;;
20294;SDS011;10306;52.128;5.208;2023-08-06T09:25:33;10.67;;;7.87;;
20294;SDS011;10306;52.128;5.208;2023-08-06T09:28:00;7.90;;;7.30;;
20294;SDS011;10306;52.128;5.208;2023-08-06T09:30:30;8.33;;;7.40;;
20294;SDS011;10306;52.128;5.208;2023-08-06T09:32:56;7.53;;;6.83;;
20294;SDS011;10306;52.128;5.208;2023-08-06T09:35:22;7.80;;;7.10;;
20294;SDS011;10306;52.128;5.208;2023-08-06T09:37:48;7.07;;;6.43;;
20294;SDS011;10306;52.128;5.208;2023-08-06T09:40:31;7.23;;;6.53;;
20294;SDS011;10306;52.128;5.208;2023-08-06T09:42:57;7.80;;;7.10;;
20294;SDS011;10306;52.128;5.208;2023-08-06T09:45:28;9.33;;;7.40;;
20294;SDS011;10306;52.128;5.208;2023-08-06T09:47:55;9.83;;;6.90;;
20294;SDS011;10306;52.128;5.208;2023-08-06T09:50:22;7.03;;;6.27;;
20294;SDS011;10306;52.128;5.208;2023-08-06T09:52:48;8.20;;;6.93;;
20294;SDS011;10306;52.128;5.208;2023-08-06T09:55:15;7.20;;;6.27;;
20294;SDS011;10306;52.128;5.208;2023-08-06T09:57:41;9.03;;;6.23;;
20294;SDS011;10306;52.128;5.208;2023-08-06T10:00:08;8.20;;;6.10;;
20294;SDS011;10306;52.128;5.208;2023-08-06T10:02:35;7.67;;;6.87;;
20294;SDS011;10306;52.128;5.208;2023-08-06T10:05:03;8.20;;;7.03;;
20294;SDS011;10306;52.128;5.208;2023-08-06T10:07:29;7.37;;;6.50;;
20294;SDS011;10306;52.128;5.208;2023-08-06T10:09:55;6.70;;;6.00;;
20294;SDS011;10306;52.128;5.208;2023-08-06T10:12:22;6.70;;;6.13;;
20294;SDS011;10306;52.128;5.208;2023-08-06T10:14:50;9.57;;;6.07;;
20294;SDS011;10306;52.128;5.208;2023-08-06T10:17:16;6.30;;;5.77;;
20294;SDS011;10306;52.128;5.208;2023-08-06T10:19:42;7.27;;;5.33;;
20294;SDS011;10306;52.128;5.208;2023-08-06T10:22:15;7.80;;;5.03;;
20294;SDS011;10306;52.128;5.208;2023-08-06T10:27:13;6.07;;;5.20;;
20294;SDS011;10306;52.128;5.208;2023-08-06T10:29:39;6.33;;;5.20;;
20294;SDS011;10306;52.128;5.208;2023-08-06T10:32:05;5.27;;;4.70;;
20294;SDS011;10306;52.128;5.208;2023-08-06T10:37:16;5.77;;;4.77;;
20294;SDS011;10306;52.128;5.208;2023-08-06T10:39:50;5.17;;;3.67;;
20294;SDS011;10306;52.128;5.208;2023-08-06T10:42:27;4.00;;;3.70;;
20294;SDS011;10306;52.128;5.208;2023-08-06T10:47:40;4.17;;;3.60;;
20294;SDS011;10306;52.128;5.208;2023-08-06T10:50:16;3.87;;;3.47;;
20294;SDS011;10306;52.128;5.208;2023-08-06T10:52:43;3.33;;;3.13;;
20294;SDS011;10306;52.128;5.208;2023-08-06T10:55:09;4.03;;;3.10;;
20294;SDS011;10306;52.128;5.208;2023-08-06T10:57:36;3.20;;;2.90;;
20294;SDS011;10306;52.128;5.208;2023-08-06T11:00:04;3.63;;;2.97;;
20294;SDS011;10306;52.128;5.208;2023-08-06T11:02:33;3.83;;;3.10;;
20294;SDS011;10306;52.128;5.208;2023-08-06T11:05:04;3.57;;;3.00;;
20294;SDS011;10306;52.128;5.208;2023-08-06T11:07:30;3.40;;;2.77;;
20294;SDS011;10306;52.128;5.208;2023-08-06T11:10:05;2.77;;;2.57;;
20294;SDS011;10306;52.128;5.208;2023-08-06T11:12:32;2.40;;;2.30;;
20294;SDS011;10306;52.128;5.208;2023-08-06T11:14:58;2.40;;;2.20;;
20294;SDS011;10306;52.128;5.208;2023-08-06T11:17:25;2.70;;;2.50;;
20294;SDS011;10306;52.128;5.208;2023-08-06T11:19:51;2.80;;;2.60;;
20294;SDS011;10306;52.128;5.208;2023-08-06T11:22:20;2.50;;;2.40;;
20294;SDS011;10306;52.128;5.208;2023-08-06T11:24:46;2.73;;;2.53;;
20294;SDS011;10306;52.128;5.208;2023-08-06T11:27:13;3.33;;;2.70;;
20294;SDS011;10306;52.128;5.208;2023-08-06T11:29:40;3.27;;;2.47;;
20294;SDS011;10306;52.128;5.208;2023-08-06T11:32:06;3.03;;;2.70;;
20294;SDS011;10306;52.128;5.208;2023-08-06T11:34:33;2.40;;;2.20;;
20294;SDS011;10306;52.128;5.208;2023-08-06T11:36:58;2.77;;;2.43;;
20294;SDS011;10306;52.128;5.208;2023-08-06T11:39:24;2.10;;;2.00;;
20294;SDS011;10306;52.128;5.208;2023-08-06T11:41:51;2.83;;;1.90;;
20294;SDS011;10306;52.128;5.208;2023-08-06T11:44:19;1.90;;;1.80;;
20294;SDS011;10306;52.128;5.208;2023-08-06T11:46:53;2.53;;;2.10;;
20294;SDS011;10306;52.128;5.208;2023-08-06T11:49:36;1.73;;;1.63;;
20294;SDS011;10306;52.128;5.208;2023-08-06T11:52:24;3.33;;;2.07;;
20294;SDS011;10306;52.128;5.208;2023-08-06T11:55:00;1.60;;;1.50;;
20294;SDS011;10306;52.128;5.208;2023-08-06T11:57:35;1.40;;;1.30;;
20294;SDS011;10306;52.128;5.208;2023-08-06T12:00:05;1.80;;;1.70;;
20294;SDS011;10306;52.128;5.208;2023-08-06T12:02:32;2.80;;;1.60;;
20294;SDS011;10306;52.128;5.208;2023-08-06T12:05:12;1.83;;;1.63;;
20294;SDS011;10306;52.128;5.208;2023-08-06T12:07:39;3.97;;;1.57;;
20294;SDS011;10306;52.128;5.208;2023-08-06T12:10:06;1.50;;;1.40;;
20294;SDS011;10306;52.128;5.208;2023-08-06T12:12:32;2.87;;;1.57;;
20294;SDS011;10306;52.128;5.208;2023-08-06T12:14:59;1.83;;;1.73;;
20294;SDS011;10306;52.128;5.208;2023-08-06T12:17:25;3.27;;;1.50;;
20294;SDS011;10306;52.128;5.208;2023-08-06T12:19:51;2.20;;;1.30;;
20294;SDS011;10306;52.128;5.208;2023-08-06T12:22:17;1.50;;;1.50;;
20294;SDS011;10306;52.128;5.208;2023-08-06T12:24:43;2.00;;;1.67;;
20294;SDS011;10306;52.128;5.208;2023-08-06T12:27:10;1.33;;;1.20;;
20294;SDS011;10306;52.128;5.208;2023-08-06T12:29:37;1.20;;;1.10;;
20294;SDS011;10306;52.128;5.208;2023-08-06T12:32:03;2.70;;;1.30;;
20294;SDS011;10306;52.128;5.208;2023-08-06T12:34:29;1.47;;;1.37;;
20294;SDS011;10306;52.128;5.208;2023-08-06T12:36:55;1.53;;;1.43;;
20294;SDS011;10306;52.128;5.208;2023-08-06T12:39:21;3.20;;;1.40;;
20294;SDS011;10306;52.128;5.208;2023-08-06T12:41:47;1.80;;;1.47;;
20294;SDS011;10306;52.128;5.208;2023-08-06T12:44:13;2.80;;;1.53;;
20294;SDS011;10306;52.128;5.208;2023-08-06T12:46:39;2.00;;;1.80;;
20294;SDS011;10306;52.128;5.208;2023-08-06T12:49:05;2.10;;;1.70;;
20294;SDS011;10306;52.128;5.208;2023-08-06T12:51:31;3.43;;;1.97;;
20294;SDS011;10306;52.128;5.208;2023-08-06T12:53:58;2.30;;;1.80;;
20294;SDS011;10306;52.128;5.208;2023-08-06T12:56:25;2.07;;;1.77;;
20294;SDS011;10306;52.128;5.208;2023-08-06T12:58:51;2.03;;;1.87;;
20294;SDS011;10306;52.128;5.208;2023-08-06T13:01:17;2.60;;;1.90;;
20294;SDS011;10306;52.128;5.208;2023-08-06T13:03:42;3.60;;;1.93;;
20294;SDS011;10306;52.128;5.208;2023-08-06T13:06:08;1.80;;;1.70;;
20294;SDS011;10306;52.128;5.208;2023-08-06T13:08:35;1.80;;;1.70;;
20294;SDS011;10306;52.128;5.208;2023-08-06T13:11:01;2.23;;;1.70;;
20294;SDS011;10306;52.128;5.208;2023-08-06T13:13:27;2.13;;;1.80;;
20294;SDS011;10306;52.128;5.208;2023-08-06T13:15:53;2.03;;;1.83;;
20294;SDS011;10306;52.128;5.208;2023-08-06T13:18:19;1.83;;;1.73;;
20294;SDS011;10306;52.128;5.208;2023-08-06T13:20:45;1.70;;;1.53;;
20294;SDS011;10306;52.128;5.208;2023-08-06T13:23:12;1.80;;;1.70;;
20294;SDS011;10306;52.128;5.208;2023-08-06T13:25:40;1.90;;;1.80;;
20294;SDS011;10306;52.128;5.208;2023-08-06T13:28:06;1.97;;;1.87;;
20294;SDS011;10306;52.128;5.208;2023-08-06T13:30:32;1.80;;;1.70;;
20294;SDS011;10306;52.128;5.208;2023-08-06T13:33:00;2.07;;;1.63;;
20294;SDS011;10306;52.128;5.208;2023-08-06T13:35:26;3.37;;;1.90;;
20294;SDS011;10306;52.128;5.208;2023-08-06T13:37:53;1.80;;;1.70;;
20294;SDS011;10306;52.128;5.208;2023-08-06T13:40:20;1.83;;;1.73;;
20294;SDS011;10306;52.128;5.208;2023-08-06T13:42:46;3.13;;;1.97;;
20294;SDS011;10306;52.128;5.208;2023-08-06T13:45:12;3.13;;;2.40;;
20294;SDS011;10306;52.128;5.208;2023-08-06T13:47:38;2.37;;;2.17;;
20294;SDS011;10306;52.128;5.208;2023-08-06T13:50:04;2.60;;;2.40;;
20294;SDS011;10306;52.128;5.208;2023-08-06T13:52:30;2.53;;;2.33;;
20294;SDS011;10306;52.128;5.208;2023-08-06T13:54:56;2.73;;;2.40;;
20294;SDS011;10306;52.128;5.208;2023-08-06T13:57:22;2.30;;;2.20;;
20294;SDS011;10306;52.128;5.208;2023-08-06T13:59:48;2.47;;;2.33;;
20294;SDS011;10306;52.128;5.208;2023-08-06T14:02:14;2.23;;;2.13;;
20294;SDS011;10306;52.128;5.208;2023-08-06T14:04:40;2.30;;;2.20;;
20294;SDS011;10306;52.128;5.208;2023-08-06T14:07:06;2.50;;;2.30;;
20294;SDS011;10306;52.128;5.208;2023-08-06T14:09:32;2.73;;;2.47;;
20294;SDS011;10306;52.128;5.208;2023-08-06T14:11:59;2.83;;;2.40;;
20294;SDS011;10306;52.128;5.208;2023-08-06T14:14:25;2.30;;;2.20;;
20294;SDS011;10306;52.128;5.208;2023-08-06T14:16:54;2.73;;;2.50;;
20294;SDS011;10306;52.128;5.208;2023-08-06T14:19:21;2.37;;;2.20;;
20294;SDS011;10306;52.128;5.208;2023-08-06T14:21:47;2.33;;;2.13;;
20294;SDS011;10306;52.128;5.208;2023-08-06T14:24:12;3.63;;;2.17;;
20294;SDS011;10306;52.128;5.208;2023-08-06T14:26:38;3.20;;;2.10;;
20294;SDS011;10306;52.128;5.208;2023-08-06T14:29:05;2.17;;;2.07;;
20294;SDS011;10306;52.128;5.208;2023-08-06T14:31:31;2.17;;;2.07;;
20294;SDS011;10306;52.128;5.208;2023-08-06T14:33:57;2.33;;;2.10;;
20294;SDS011;10306;52.128;5.208;2023-08-06T14:36:23;2.07;;;1.87;;
20294;SDS011;10306;52.128;5.208;2023-08-06T14:38:49;2.03;;;1.80;;
20294;SDS011;10306;52.128;5.208;2023-08-06T14:41:15;4.23;;;2.77;;
20294;SDS011;10306;52.128;5.208;2023-08-06T14:43:41;2.00;;;1.90;;
20294;SDS011;10306;52.128;5.208;2023-08-06T14:46:08;3.10;;;1.93;;
20294;SDS011;10306;52.128;5.208;2023-08-06T14:48:33;3.90;;;1.70;;